Smyrna, Pennsylvania
Current Conditions -  °F | °C
As of 1:35 PM on Saturday 25 Oct 2014 (Local Time) from KMQS Reporting Station
Clear Clear  
Wind Chill: 64°   Ceiling: Unl
Heat Index: 64°   Visibility: 10mi
Dew Point: 45°   Wind: 14mph
Humidity: 49%   Direction: 300°WNW
Pressure: 29.82"   Gusts: NA
Location:  39.9118°N, 76.0265°W
Report Text: KMQS 251735Z AUTO 30012KT 250V320 10SM CLR 18/07 A2982 RMK AO2
Loading
Personal Weather Stations






























Interactive Weather Map
Tropical Storm Tracking
New forecast layout! Learn more

10-Day Weather Forecast

Advertisements
Track Severe Weather on mobile